sensor_id;sensor_type;location;lat;lon;timestamp;P1;durP1;ratioP1;P2;durP2;ratioP2
23242;SDS011;11790;49.578;11.214;2023-05-10T00:00:12;3.88;;;3.13;;
23242;SDS011;11790;49.578;11.214;2023-05-10T00:05:13;6.57;;;3.10;;
23242;SDS011;11790;49.578;11.214;2023-05-10T00:10:13;5.00;;;3.38;;
23242;SDS011;11790;49.578;11.214;2023-05-10T00:15:13;4.80;;;3.30;;
23242;SDS011;11790;49.578;11.214;2023-05-10T00:20:13;4.50;;;3.10;;
23242;SDS011;11790;49.578;11.214;2023-05-10T00:25:14;4.88;;;3.45;;
23242;SDS011;11790;49.578;11.214;2023-05-10T00:30:14;4.20;;;3.00;;
23242;SDS011;11790;49.578;11.214;2023-05-10T00:35:15;4.63;;;3.40;;
23242;SDS011;11790;49.578;11.214;2023-05-10T00:40:15;4.85;;;3.13;;
23242;SDS011;11790;49.578;11.214;2023-05-10T00:45:15;5.72;;;3.40;;
23242;SDS011;11790;49.578;11.214;2023-05-10T00:50:15;3.92;;;3.28;;
23242;SDS011;11790;49.578;11.214;2023-05-10T00:55:16;4.72;;;3.40;;
23242;SDS011;11790;49.578;11.214;2023-05-10T01:00:17;7.57;;;3.80;;
23242;SDS011;11790;49.578;11.214;2023-05-10T01:05:18;4.65;;;3.67;;
23242;SDS011;11790;49.578;11.214;2023-05-10T01:10:18;5.57;;;3.33;;
23242;SDS011;11790;49.578;11.214;2023-05-10T01:15:18;6.93;;;3.90;;
23242;SDS011;11790;49.578;11.214;2023-05-10T01:20:20;5.47;;;3.60;;
23242;SDS011;11790;49.578;11.214;2023-05-10T01:40:52;6.57;;;4.50;;
23242;SDS011;11790;49.578;11.214;2023-05-10T01:50:54;11.00;;;4.50;;
23242;SDS011;11790;49.578;11.214;2023-05-10T01:55:56;7.22;;;4.70;;
23242;SDS011;11790;49.578;11.214;2023-05-10T02:01:00;7.65;;;5.18;;
23242;SDS011;11790;49.578;11.214;2023-05-10T02:06:01;6.57;;;4.75;;
23242;SDS011;11790;49.578;11.214;2023-05-10T02:11:02;6.90;;;5.32;;
23242;SDS011;11790;49.578;11.214;2023-05-10T02:16:04;7.32;;;5.80;;
23242;SDS011;11790;49.578;11.214;2023-05-10T02:21:05;8.75;;;5.63;;
23242;SDS011;11790;49.578;11.214;2023-05-10T02:26:05;5.97;;;4.82;;
23242;SDS011;11790;49.578;11.214;2023-05-10T02:31:06;6.88;;;5.38;;
23242;SDS011;11790;49.578;11.214;2023-05-10T02:36:07;7.25;;;5.05;;
23242;SDS011;11790;49.578;11.214;2023-05-10T02:41:08;8.85;;;6.00;;
23242;SDS011;11790;49.578;11.214;2023-05-10T02:46:09;8.07;;;5.55;;
23242;SDS011;11790;49.578;11.214;2023-05-10T02:51:09;7.80;;;6.15;;
23242;SDS011;11790;49.578;11.214;2023-05-10T02:56:15;8.38;;;5.72;;
23242;SDS011;11790;49.578;11.214;2023-05-10T03:01:19;8.95;;;6.38;;
23242;SDS011;11790;49.578;11.214;2023-05-10T03:06:20;7.80;;;6.00;;
23242;SDS011;11790;49.578;11.214;2023-05-10T03:16:46;7.95;;;5.25;;
23242;SDS011;11790;49.578;11.214;2023-05-10T03:21:47;8.75;;;5.30;;
23242;SDS011;11790;49.578;11.214;2023-05-10T03:26:49;5.47;;;3.50;;
23242;SDS011;11790;49.578;11.214;2023-05-10T03:31:50;3.78;;;2.72;;
23242;SDS011;11790;49.578;11.214;2023-05-10T03:36:50;3.42;;;2.65;;
23242;SDS011;11790;49.578;11.214;2023-05-10T03:41:50;3.95;;;2.83;;
23242;SDS011;11790;49.578;11.214;2023-05-10T03:46:51;3.00;;;2.28;;
23242;SDS011;11790;49.578;11.214;2023-05-10T03:51:51;4.07;;;2.67;;
23242;SDS011;11790;49.578;11.214;2023-05-10T03:56:51;3.42;;;2.58;;
23242;SDS011;11790;49.578;11.214;2023-05-10T04:01:51;3.10;;;2.35;;
23242;SDS011;11790;49.578;11.214;2023-05-10T04:06:52;3.75;;;3.00;;
23242;SDS011;11790;49.578;11.214;2023-05-10T04:11:52;2.55;;;1.95;;
23242;SDS011;11790;49.578;11.214;2023-05-10T04:16:52;2.45;;;1.92;;
23242;SDS011;11790;49.578;11.214;2023-05-10T04:21:52;4.13;;;2.20;;
23242;SDS011;11790;49.578;11.214;2023-05-10T04:26:53;2.17;;;1.60;;
23242;SDS011;11790;49.578;11.214;2023-05-10T04:31:54;2.40;;;1.33;;
23242;SDS011;11790;49.578;11.214;2023-05-10T04:36:55;3.40;;;1.33;;
23242;SDS011;11790;49.578;11.214;2023-05-10T04:41:55;1.73;;;1.20;;
23242;SDS011;11790;49.578;11.214;2023-05-10T04:46:55;1.48;;;0.90;;
23242;SDS011;11790;49.578;11.214;2023-05-10T04:51:55;1.85;;;0.90;;
23242;SDS011;11790;49.578;11.214;2023-05-10T04:56:55;1.15;;;0.80;;
23242;SDS011;11790;49.578;11.214;2023-05-10T05:01:56;2.28;;;1.00;;
23242;SDS011;11790;49.578;11.214;2023-05-10T05:06:56;1.00;;;0.82;;
23242;SDS011;11790;49.578;11.214;2023-05-10T05:11:56;2.75;;;0.88;;
23242;SDS011;11790;49.578;11.214;2023-05-10T05:16:56;1.10;;;0.82;;
23242;SDS011;11790;49.578;11.214;2023-05-10T05:21:57;3.10;;;0.70;;
23242;SDS011;11790;49.578;11.214;2023-05-10T05:26:57;1.08;;;0.80;;
23242;SDS011;11790;49.578;11.214;2023-05-10T05:31:57;1.20;;;0.90;;
23242;SDS011;11790;49.578;11.214;2023-05-10T05:36:57;1.25;;;0.90;;
23242;SDS011;11790;49.578;11.214;2023-05-10T05:41:57;1.10;;;0.90;;
23242;SDS011;11790;49.578;11.214;2023-05-10T05:46:58;1.95;;;0.90;;
23242;SDS011;11790;49.578;11.214;2023-05-10T05:52:02;1.00;;;0.90;;
23242;SDS011;11790;49.578;11.214;2023-05-10T05:57:02;0.82;;;0.80;;
23242;SDS011;11790;49.578;11.214;2023-05-10T06:02:02;1.45;;;1.00;;
23242;SDS011;11790;49.578;11.214;2023-05-10T06:07:02;1.80;;;0.80;;
23242;SDS011;11790;49.578;11.214;2023-05-10T06:12:03;2.88;;;0.80;;
23242;SDS011;11790;49.578;11.214;2023-05-10T06:17:03;0.93;;;0.82;;
23242;SDS011;11790;49.578;11.214;2023-05-10T06:22:04;2.17;;;1.00;;
23242;SDS011;11790;49.578;11.214;2023-05-10T06:27:05;1.10;;;0.85;;
23242;SDS011;11790;49.578;11.214;2023-05-10T06:32:06;1.08;;;0.95;;
23242;SDS011;11790;49.578;11.214;2023-05-10T06:37:06;1.50;;;1.00;;
23242;SDS011;11790;49.578;11.214;2023-05-10T06:42:06;1.85;;;1.02;;
23242;SDS011;11790;49.578;11.214;2023-05-10T06:47:06;1.15;;;0.98;;
23242;SDS011;11790;49.578;11.214;2023-05-10T06:52:06;1.02;;;0.93;;
23242;SDS011;11790;49.578;11.214;2023-05-10T06:57:07;1.15;;;1.02;;
23242;SDS011;11790;49.578;11.214;2023-05-10T07:02:07;1.52;;;1.30;;
23242;SDS011;11790;49.578;11.214;2023-05-10T07:07:08;1.80;;;1.27;;
23242;SDS011;11790;49.578;11.214;2023-05-10T07:12:08;1.83;;;1.30;;
23242;SDS011;11790;49.578;11.214;2023-05-10T07:17:08;2.22;;;0.90;;
23242;SDS011;11790;49.578;11.214;2023-05-10T07:22:09;1.10;;;0.97;;
23242;SDS011;11790;49.578;11.214;2023-05-10T07:27:09;1.20;;;1.05;;
23242;SDS011;11790;49.578;11.214;2023-05-10T07:32:09;1.10;;;0.80;;
23242;SDS011;11790;49.578;11.214;2023-05-10T07:37:09;1.15;;;0.77;;
23242;SDS011;11790;49.578;11.214;2023-05-10T07:42:09;5.85;;;0.85;;
23242;SDS011;11790;49.578;11.214;2023-05-10T07:47:10;1.05;;;0.57;;
23242;SDS011;11790;49.578;11.214;2023-05-10T07:52:10;1.33;;;0.60;;
23242;SDS011;11790;49.578;11.214;2023-05-10T07:57:11;0.60;;;0.55;;
23242;SDS011;11790;49.578;11.214;2023-05-10T08:02:11;0.77;;;0.60;;
23242;SDS011;11790;49.578;11.214;2023-05-10T08:07:11;2.13;;;0.45;;
23242;SDS011;11790;49.578;11.214;2023-05-10T08:12:11;0.80;;;0.57;;
23242;SDS011;11790;49.578;11.214;2023-05-10T08:17:11;5.07;;;0.68;;
23242;SDS011;11790;49.578;11.214;2023-05-10T08:22:11;0.90;;;0.60;;
23242;SDS011;11790;49.578;11.214;2023-05-10T08:27:11;0.60;;;0.50;;
23242;SDS011;11790;49.578;11.214;2023-05-10T08:32:12;2.15;;;0.60;;
23242;SDS011;11790;49.578;11.214;2023-05-10T08:37:12;3.17;;;1.58;;
23242;SDS011;11790;49.578;11.214;2023-05-10T08:42:13;1.40;;;0.80;;
23242;SDS011;11790;49.578;11.214;2023-05-10T08:47:16;1.42;;;0.80;;
23242;SDS011;11790;49.578;11.214;2023-05-10T08:52:16;2.90;;;0.80;;
23242;SDS011;11790;49.578;11.214;2023-05-10T08:57:17;1.33;;;1.00;;
23242;SDS011;11790;49.578;11.214;2023-05-10T09:02:18;1.40;;;1.00;;
23242;SDS011;11790;49.578;11.214;2023-05-10T09:07:19;1.52;;;1.10;;
23242;SDS011;11790;49.578;11.214;2023-05-10T09:12:20;3.05;;;1.02;;
23242;SDS011;11790;49.578;11.214;2023-05-10T09:17:20;1.17;;;1.08;;
23242;SDS011;11790;49.578;11.214;2023-05-10T09:22:21;2.00;;;1.10;;
23242;SDS011;11790;49.578;11.214;2023-05-10T09:27:27;1.90;;;0.90;;
23242;SDS011;11790;49.578;11.214;2023-05-10T09:32:36;4.55;;;1.48;;
23242;SDS011;11790;49.578;11.214;2023-05-10T09:37:38;3.97;;;1.42;;
23242;SDS011;11790;49.578;11.214;2023-05-10T09:42:40;1.70;;;1.42;;
23242;SDS011;11790;49.578;11.214;2023-05-10T09:47:40;1.58;;;1.33;;
23242;SDS011;11790;49.578;11.214;2023-05-10T09:52:47;1.25;;;1.05;;
23242;SDS011;11790;49.578;11.214;2023-05-10T09:57:48;1.80;;;1.00;;
23242;SDS011;11790;49.578;11.214;2023-05-10T10:02:58;0.90;;;0.77;;
23242;SDS011;11790;49.578;11.214;2023-05-10T10:07:59;1.50;;;1.00;;
23242;SDS011;11790;49.578;11.214;2023-05-10T10:13:01;1.67;;;0.88;;
23242;SDS011;11790;49.578;11.214;2023-05-10T10:18:02;1.02;;;0.93;;
23242;SDS011;11790;49.578;11.214;2023-05-10T10:23:03;3.15;;;1.02;;
23242;SDS011;11790;49.578;11.214;2023-05-10T10:28:13;2.08;;;1.42;;
23242;SDS011;11790;49.578;11.214;2023-05-10T10:38:22;2.45;;;1.60;;
23242;SDS011;11790;49.578;11.214;2023-05-10T10:43:26;2.35;;;1.70;;
23242;SDS011;11790;49.578;11.214;2023-05-10T10:48:26;2.70;;;1.58;;
23242;SDS011;11790;49.578;11.214;2023-05-10T10:53:27;3.67;;;1.45;;
23242;SDS011;11790;49.578;11.214;2023-05-10T10:58:30;2.40;;;1.55;;
23242;SDS011;11790;49.578;11.214;2023-05-10T11:03:31;2.00;;;1.23;;
23242;SDS011;11790;49.578;11.214;2023-05-10T11:08:32;1.88;;;1.20;;
23242;SDS011;11790;49.578;11.214;2023-05-10T11:13:42;0.93;;;0.65;;
23242;SDS011;11790;49.578;11.214;2023-05-10T11:18:59;1.20;;;0.80;;
23242;SDS011;11790;49.578;11.214;2023-05-10T11:24:01;2.85;;;0.88;;
23242;SDS011;11790;49.578;11.214;2023-05-10T11:29:05;2.50;;;0.80;;
23242;SDS011;11790;49.578;11.214;2023-05-10T11:34:05;2.40;;;1.47;;
23242;SDS011;11790;49.578;11.214;2023-05-10T11:39:06;2.20;;;1.03;;
23242;SDS011;11790;49.578;11.214;2023-05-10T11:44:06;1.55;;;0.95;;
23242;SDS011;11790;49.578;11.214;2023-05-10T11:49:08;5.45;;;1.00;;
23242;SDS011;11790;49.578;11.214;2023-05-10T11:54:09;3.38;;;1.35;;
23242;SDS011;11790;49.578;11.214;2023-05-10T11:59:10;2.10;;;1.23;;
23242;SDS011;11790;49.578;11.214;2023-05-10T12:04:10;3.22;;;1.65;;
23242;SDS011;11790;49.578;11.214;2023-05-10T12:09:11;4.72;;;1.48;;
23242;SDS011;11790;49.578;11.214;2023-05-10T12:14:11;2.97;;;1.40;;
23242;SDS011;11790;49.578;11.214;2023-05-10T12:19:11;9.23;;;1.90;;
23242;SDS011;11790;49.578;11.214;2023-05-10T12:24:11;1.88;;;1.45;;
23242;SDS011;11790;49.578;11.214;2023-05-10T12:29:13;2.33;;;1.58;;
23242;SDS011;11790;49.578;11.214;2023-05-10T12:34:22;1.58;;;1.20;;
23242;SDS011;11790;49.578;11.214;2023-05-10T12:39:22;4.50;;;1.52;;
23242;SDS011;11790;49.578;11.214;2023-05-10T12:44:22;2.13;;;1.20;;
23242;SDS011;11790;49.578;11.214;2023-05-10T12:49:23;1.77;;;0.93;;
23242;SDS011;11790;49.578;11.214;2023-05-10T12:54:23;1.20;;;0.80;;
23242;SDS011;11790;49.578;11.214;2023-05-10T12:59:23;1.13;;;0.70;;
23242;SDS011;11790;49.578;11.214;2023-05-10T13:04:23;1.83;;;0.98;;
23242;SDS011;11790;49.578;11.214;2023-05-10T13:09:23;2.08;;;0.98;;
23242;SDS011;11790;49.578;11.214;2023-05-10T13:14:24;1.25;;;1.00;;
23242;SDS011;11790;49.578;11.214;2023-05-10T13:19:25;1.48;;;0.90;;
23242;SDS011;11790;49.578;11.214;2023-05-10T13:24:25;1.10;;;1.00;;
23242;SDS011;11790;49.578;11.214;2023-05-10T13:29:25;1.25;;;0.90;;
23242;SDS011;11790;49.578;11.214;2023-05-10T13:34:26;1.25;;;1.00;;
23242;SDS011;11790;49.578;11.214;2023-05-10T13:39:26;2.53;;;1.10;;
23242;SDS011;11790;49.578;11.214;2023-05-10T13:44:26;2.33;;;1.40;;
23242;SDS011;11790;49.578;11.214;2023-05-10T13:49:26;3.78;;;1.50;;
23242;SDS011;11790;49.578;11.214;2023-05-10T13:54:27;1.88;;;1.17;;
23242;SDS011;11790;49.578;11.214;2023-05-10T13:59:29;1.83;;;1.30;;
23242;SDS011;11790;49.578;11.214;2023-05-10T14:04:31;2.60;;;1.20;;
23242;SDS011;11790;49.578;11.214;2023-05-10T14:09:31;2.00;;;0.90;;
23242;SDS011;11790;49.578;11.214;2023-05-10T14:14:32;2.00;;;0.75;;
23242;SDS011;11790;49.578;11.214;2023-05-10T14:19:32;1.83;;;0.82;;
23242;SDS011;11790;49.578;11.214;2023-05-10T14:24:33;1.45;;;0.80;;
23242;SDS011;11790;49.578;11.214;2023-05-10T14:29:34;2.17;;;0.80;;
23242;SDS011;11790;49.578;11.214;2023-05-10T14:34:34;2.22;;;0.73;;
23242;SDS011;11790;49.578;11.214;2023-05-10T14:39:34;1.42;;;0.93;;
23242;SDS011;11790;49.578;11.214;2023-05-10T14:44:34;1.95;;;1.02;;
23242;SDS011;11790;49.578;11.214;2023-05-10T14:49:35;1.42;;;1.17;;
23242;SDS011;11790;49.578;11.214;2023-05-10T14:54:35;1.90;;;1.05;;
23242;SDS011;11790;49.578;11.214;2023-05-10T14:59:35;2.70;;;1.00;;
23242;SDS011;11790;49.578;11.214;2023-05-10T15:04:35;8.40;;;1.60;;
23242;SDS011;11790;49.578;11.214;2023-05-10T15:09:36;3.17;;;1.42;;
23242;SDS011;11790;49.578;11.214;2023-05-10T15:14:36;2.00;;;1.38;;
23242;SDS011;11790;49.578;11.214;2023-05-10T15:19:36;1.75;;;1.40;;
23242;SDS011;11790;49.578;11.214;2023-05-10T15:24:46;2.00;;;1.65;;
23242;SDS011;11790;49.578;11.214;2023-05-10T15:29:46;3.17;;;1.70;;
23242;SDS011;11790;49.578;11.214;2023-05-10T15:34:46;3.92;;;1.30;;
23242;SDS011;11790;49.578;11.214;2023-05-10T15:39:47;1.90;;;1.20;;
23242;SDS011;11790;49.578;11.214;2023-05-10T15:44:47;3.92;;;1.30;;
23242;SDS011;11790;49.578;11.214;2023-05-10T15:49:50;1.52;;;1.30;;
23242;SDS011;11790;49.578;11.214;2023-05-10T15:54:50;2.10;;;1.20;;
23242;SDS011;11790;49.578;11.214;2023-05-10T15:59:50;3.03;;;1.30;;
23242;SDS011;11790;49.578;11.214;2023-05-10T16:04:51;2.75;;;1.35;;
23242;SDS011;11790;49.578;11.214;2023-05-10T16:09:51;2.00;;;1.20;;
23242;SDS011;11790;49.578;11.214;2023-05-10T16:14:51;4.90;;;1.85;;
23242;SDS011;11790;49.578;11.214;2023-05-10T16:19:52;1.80;;;1.25;;
23242;SDS011;11790;49.578;11.214;2023-05-10T16:24:52;2.25;;;1.20;;
23242;SDS011;11790;49.578;11.214;2023-05-10T16:29:52;1.85;;;1.58;;
23242;SDS011;11790;49.578;11.214;2023-05-10T16:34:53;2.65;;;1.35;;
23242;SDS011;11790;49.578;11.214;2023-05-10T16:39:53;8.43;;;1.90;;
23242;SDS011;11790;49.578;11.214;2023-05-10T16:44:53;3.60;;;2.40;;
23242;SDS011;11790;49.578;11.214;2023-05-10T16:49:53;1.52;;;1.40;;
23242;SDS011;11790;49.578;11.214;2023-05-10T16:54:54;2.90;;;1.73;;
23242;SDS011;11790;49.578;11.214;2023-05-10T16:59:54;4.93;;;1.80;;
23242;SDS011;11790;49.578;11.214;2023-05-10T17:04:55;2.30;;;1.90;;
23242;SDS011;11790;49.578;11.214;2023-05-10T17:09:55;4.00;;;2.58;;
23242;SDS011;11790;49.578;11.214;2023-05-10T17:14:57;3.42;;;2.22;;
23242;SDS011;11790;49.578;11.214;2023-05-10T17:19:58;4.05;;;2.05;;
23242;SDS011;11790;49.578;11.214;2023-05-10T17:24:59;3.58;;;1.75;;
23242;SDS011;11790;49.578;11.214;2023-05-10T17:29:59;2.60;;;1.70;;
23242;SDS011;11790;49.578;11.214;2023-05-10T17:34:59;2.05;;;1.60;;
23242;SDS011;11790;49.578;11.214;2023-05-10T17:40:00;6.47;;;1.60;;
23242;SDS011;11790;49.578;11.214;2023-05-10T17:45:00;2.07;;;1.43;;
23242;SDS011;11790;49.578;11.214;2023-05-10T17:50:00;3.17;;;1.70;;
23242;SDS011;11790;49.578;11.214;2023-05-10T17:55:00;3.00;;;1.70;;
23242;SDS011;11790;49.578;11.214;2023-05-10T18:00:02;3.08;;;1.85;;
23242;SDS011;11790;49.578;11.214;2023-05-10T18:05:05;2.72;;;1.85;;
23242;SDS011;11790;49.578;11.214;2023-05-10T18:10:06;3.33;;;2.00;;
23242;SDS011;11790;49.578;11.214;2023-05-10T18:15:06;2.83;;;2.00;;
23242;SDS011;11790;49.578;11.214;2023-05-10T18:20:07;2.38;;;1.80;;
23242;SDS011;11790;49.578;11.214;2023-05-10T18:25:07;2.85;;;1.90;;
23242;SDS011;11790;49.578;11.214;2023-05-10T18:30:08;2.85;;;1.90;;
23242;SDS011;11790;49.578;11.214;2023-05-10T18:35:09;3.75;;;2.20;;
23242;SDS011;11790;49.578;11.214;2023-05-10T18:40:10;4.40;;;2.00;;
23242;SDS011;11790;49.578;11.214;2023-05-10T18:45:13;4.13;;;2.20;;
23242;SDS011;11790;49.578;11.214;2023-05-10T18:50:13;3.03;;;2.00;;
23242;SDS011;11790;49.578;11.214;2023-05-10T18:55:15;8.65;;;2.13;;
23242;SDS011;11790;49.578;11.214;2023-05-10T19:00:16;2.90;;;2.10;;
23242;SDS011;11790;49.578;11.214;2023-05-10T19:05:18;4.07;;;2.70;;
23242;SDS011;11790;49.578;11.214;2023-05-10T19:10:18;4.25;;;3.38;;
23242;SDS011;11790;49.578;11.214;2023-05-10T19:15:18;4.17;;;3.00;;
23242;SDS011;11790;49.578;11.214;2023-05-10T19:20:19;3.87;;;2.70;;
23242;SDS011;11790;49.578;11.214;2023-05-10T19:25:19;4.45;;;3.00;;
23242;SDS011;11790;49.578;11.214;2023-05-10T19:30:20;6.85;;;3.25;;
23242;SDS011;11790;49.578;11.214;2023-05-10T19:35:22;6.40;;;3.53;;
23242;SDS011;11790;49.578;11.214;2023-05-10T19:40:22;4.28;;;3.47;;
23242;SDS011;11790;49.578;11.214;2023-05-10T19:45:22;7.60;;;4.07;;
23242;SDS011;11790;49.578;11.214;2023-05-10T19:50:23;5.68;;;3.72;;
23242;SDS011;11790;49.578;11.214;2023-05-10T19:55:27;4.47;;;3.80;;
23242;SDS011;11790;49.578;11.214;2023-05-10T20:00:27;5.65;;;3.88;;
23242;SDS011;11790;49.578;11.214;2023-05-10T20:05:28;5.40;;;4.10;;
23242;SDS011;11790;49.578;11.214;2023-05-10T20:10:29;6.75;;;4.15;;
23242;SDS011;11790;49.578;11.214;2023-05-10T20:15:29;6.32;;;4.32;;
23242;SDS011;11790;49.578;11.214;2023-05-10T20:20:29;6.38;;;4.50;;
23242;SDS011;11790;49.578;11.214;2023-05-10T20:25:30;6.38;;;4.78;;
23242;SDS011;11790;49.578;11.214;2023-05-10T20:30:30;5.70;;;4.37;;
23242;SDS011;11790;49.578;11.214;2023-05-10T20:35:30;6.23;;;4.43;;
23242;SDS011;11790;49.578;11.214;2023-05-10T20:40:31;5.60;;;4.20;;
23242;SDS011;11790;49.578;11.214;2023-05-10T20:45:31;5.97;;;4.57;;
23242;SDS011;11790;49.578;11.214;2023-05-10T20:50:32;7.40;;;4.70;;
23242;SDS011;11790;49.578;11.214;2023-05-10T20:55:32;7.13;;;4.33;;
23242;SDS011;11790;49.578;11.214;2023-05-10T21:00:32;4.90;;;4.30;;
23242;SDS011;11790;49.578;11.214;2023-05-10T21:05:32;6.22;;;4.45;;
23242;SDS011;11790;49.578;11.214;2023-05-10T21:10:33;5.18;;;4.38;;
23242;SDS011;11790;49.578;11.214;2023-05-10T21:15:33;5.82;;;4.18;;
23242;SDS011;11790;49.578;11.214;2023-05-10T21:20:33;8.48;;;4.35;;
23242;SDS011;11790;49.578;11.214;2023-05-10T21:25:33;5.97;;;4.70;;
23242;SDS011;11790;49.578;11.214;2023-05-10T21:30:34;6.90;;;4.93;;
23242;SDS011;11790;49.578;11.214;2023-05-10T21:35:34;4.60;;;4.10;;
23242;SDS011;11790;49.578;11.214;2023-05-10T21:40:38;6.72;;;3.85;;
23242;SDS011;11790;49.578;11.214;2023-05-10T21:45:38;7.35;;;4.63;;
23242;SDS011;11790;49.578;11.214;2023-05-10T21:50:39;5.60;;;4.57;;
23242;SDS011;11790;49.578;11.214;2023-05-10T21:55:40;7.75;;;4.82;;
23242;SDS011;11790;49.578;11.214;2023-05-10T22:00:40;5.95;;;4.72;;
23242;SDS011;11790;49.578;11.214;2023-05-10T22:05:40;7.30;;;5.68;;
23242;SDS011;11790;49.578;11.214;2023-05-10T22:10:40;7.40;;;5.97;;
23242;SDS011;11790;49.578;11.214;2023-05-10T22:15:40;7.95;;;5.13;;
23242;SDS011;11790;49.578;11.214;2023-05-10T22:20:45;7.25;;;5.35;;
23242;SDS011;11790;49.578;11.214;2023-05-10T22:25:45;6.60;;;4.82;;
23242;SDS011;11790;49.578;11.214;2023-05-10T22:30:45;5.45;;;4.85;;
23242;SDS011;11790;49.578;11.214;2023-05-10T22:35:47;6.80;;;5.25;;
23242;SDS011;11790;49.578;11.214;2023-05-10T22:40:47;7.15;;;5.50;;
23242;SDS011;11790;49.578;11.214;2023-05-10T22:45:47;8.40;;;5.57;;
23242;SDS011;11790;49.578;11.214;2023-05-10T22:50:47;6.80;;;5.57;;
23242;SDS011;11790;49.578;11.214;2023-05-10T22:55:47;6.53;;;5.27;;
23242;SDS011;11790;49.578;11.214;2023-05-10T23:00:47;7.72;;;6.20;;
23242;SDS011;11790;49.578;11.214;2023-05-10T23:05:48;9.57;;;6.13;;
23242;SDS011;11790;49.578;11.214;2023-05-10T23:10:48;11.18;;;6.15;;
23242;SDS011;11790;49.578;11.214;2023-05-10T23:15:48;7.22;;;5.55;;
23242;SDS011;11790;49.578;11.214;2023-05-10T23:20:48;9.88;;;5.75;;
23242;SDS011;11790;49.578;11.214;2023-05-10T23:25:48;8.30;;;6.35;;
23242;SDS011;11790;49.578;11.214;2023-05-10T23:30:58;8.10;;;6.68;;
23242;SDS011;11790;49.578;11.214;2023-05-10T23:35:58;12.63;;;7.10;;
23242;SDS011;11790;49.578;11.214;2023-05-10T23:40:58;7.90;;;6.10;;
23242;SDS011;11790;49.578;11.214;2023-05-10T23:45:58;8.65;;;6.53;;
23242;SDS011;11790;49.578;11.214;2023-05-10T23:50:58;9.48;;;6.45;;
23242;SDS011;11790;49.578;11.214;2023-05-10T23:55:59;7.20;;;5.57;;
